sensor_id;sensor_type;location;lat;lon;timestamp;P1;durP1;ratioP1;P2;durP2;ratioP2
31652;SDS011;18261;53.648;9.910;2022-08-04T00:01:21;24.05;;;7.82;;
31652;SDS011;18261;53.648;9.910;2022-08-04T00:06:15;18.48;;;6.65;;
31652;SDS011;18261;53.648;9.910;2022-08-04T00:08:49;19.98;;;7.78;;
31652;SDS011;18261;53.648;9.910;2022-08-04T00:11:19;22.17;;;7.18;;
31652;SDS011;18261;53.648;9.910;2022-08-04T00:13:49;27.10;;;8.00;;
31652;SDS011;18261;53.648;9.910;2022-08-04T00:16:15;24.63;;;7.35;;
31652;SDS011;18261;53.648;9.910;2022-08-04T00:18:47;23.08;;;7.85;;
31652;SDS011;18261;53.648;9.910;2022-08-04T00:21:15;21.10;;;7.15;;
31652;SDS011;18261;53.648;9.910;2022-08-04T00:23:43;15.30;;;6.38;;
31652;SDS011;18261;53.648;9.910;2022-08-04T00:26:09;18.88;;;6.38;;
31652;SDS011;18261;53.648;9.910;2022-08-04T00:28:36;19.80;;;6.32;;
31652;SDS011;18261;53.648;9.910;2022-08-04T00:31:03;18.33;;;6.28;;
31652;SDS011;18261;53.648;9.910;2022-08-04T00:33:29;11.90;;;5.90;;
31652;SDS011;18261;53.648;9.910;2022-08-04T00:35:55;16.50;;;6.72;;
31652;SDS011;18261;53.648;9.910;2022-08-04T00:38:22;22.08;;;6.90;;
31652;SDS011;18261;53.648;9.910;2022-08-04T00:43:16;21.98;;;6.88;;
31652;SDS011;18261;53.648;9.910;2022-08-04T00:51:13;17.42;;;6.35;;
31652;SDS011;18261;53.648;9.910;2022-08-04T00:53:48;32.00;;;7.22;;
31652;SDS011;18261;53.648;9.910;2022-08-04T00:58:51;20.67;;;6.53;;
31652;SDS011;18261;53.648;9.910;2022-08-04T01:04:09;17.85;;;5.50;;
31652;SDS011;18261;53.648;9.910;2022-08-04T01:06:44;20.08;;;5.20;;
31652;SDS011;18261;53.648;9.910;2022-08-04T01:16:46;25.48;;;6.22;;
31652;SDS011;18261;53.648;9.910;2022-08-04T01:24:50;20.08;;;5.70;;
31652;SDS011;18261;53.648;9.910;2022-08-04T01:29:55;14.65;;;5.32;;
31652;SDS011;18261;53.648;9.910;2022-08-04T01:32:25;23.25;;;5.20;;
31652;SDS011;18261;53.648;9.910;2022-08-04T01:35:03;16.08;;;5.32;;
31652;SDS011;18261;53.648;9.910;2022-08-04T01:40:16;13.63;;;4.88;;
31652;SDS011;18261;53.648;9.910;2022-08-04T01:42:42;13.18;;;4.18;;
31652;SDS011;18261;53.648;9.910;2022-08-04T01:45:10;15.48;;;4.55;;
31652;SDS011;18261;53.648;9.910;2022-08-04T01:47:37;16.88;;;4.20;;
31652;SDS011;18261;53.648;9.910;2022-08-04T01:50:08;16.17;;;4.55;;
31652;SDS011;18261;53.648;9.910;2022-08-04T01:52:35;17.77;;;4.97;;
31652;SDS011;18261;53.648;9.910;2022-08-04T01:55:03;10.25;;;4.55;;
31652;SDS011;18261;53.648;9.910;2022-08-04T01:57:31;13.85;;;4.47;;
31652;SDS011;18261;53.648;9.910;2022-08-04T01:59:59;12.07;;;5.13;;
31652;SDS011;18261;53.648;9.910;2022-08-04T02:02:25;16.33;;;5.05;;
31652;SDS011;18261;53.648;9.910;2022-08-04T02:04:51;15.88;;;4.45;;
31652;SDS011;18261;53.648;9.910;2022-08-04T02:07:25;10.98;;;4.18;;
31652;SDS011;18261;53.648;9.910;2022-08-04T02:10:17;13.70;;;4.63;;
31652;SDS011;18261;53.648;9.910;2022-08-04T02:22:52;13.00;;;4.30;;
31652;SDS011;18261;53.648;9.910;2022-08-04T02:25:23;11.45;;;3.75;;
31652;SDS011;18261;53.648;9.910;2022-08-04T02:30:37;14.57;;;4.53;;
31652;SDS011;18261;53.648;9.910;2022-08-04T02:33:05;10.32;;;3.70;;
31652;SDS011;18261;53.648;9.910;2022-08-04T02:35:34;9.15;;;3.83;;
31652;SDS011;18261;53.648;9.910;2022-08-04T02:38:14;12.30;;;4.05;;
31652;SDS011;18261;53.648;9.910;2022-08-04T02:40:41;14.13;;;4.30;;
31652;SDS011;18261;53.648;9.910;2022-08-04T02:43:07;11.90;;;4.00;;
31652;SDS011;18261;53.648;9.910;2022-08-04T02:45:35;11.70;;;4.35;;
31652;SDS011;18261;53.648;9.910;2022-08-04T02:48:04;12.90;;;4.90;;
31652;SDS011;18261;53.648;9.910;2022-08-04T02:50:33;12.77;;;4.72;;
31652;SDS011;18261;53.648;9.910;2022-08-04T02:52:59;17.98;;;5.35;;
31652;SDS011;18261;53.648;9.910;2022-08-04T02:55:28;13.70;;;4.45;;
31652;SDS011;18261;53.648;9.910;2022-08-04T02:57:55;14.15;;;4.65;;
31652;SDS011;18261;53.648;9.910;2022-08-04T03:00:22;18.77;;;5.43;;
31652;SDS011;18261;53.648;9.910;2022-08-04T03:05:19;15.90;;;4.18;;
31652;SDS011;18261;53.648;9.910;2022-08-04T03:21:04;13.20;;;4.55;;
31652;SDS011;18261;53.648;9.910;2022-08-04T03:26:42;16.33;;;5.10;;
31652;SDS011;18261;53.648;9.910;2022-08-04T03:48:38;14.18;;;5.25;;
31652;SDS011;18261;53.648;9.910;2022-08-04T03:57:21;12.15;;;4.75;;
31652;SDS011;18261;53.648;9.910;2022-08-04T04:15:13;14.05;;;5.80;;
31652;SDS011;18261;53.648;9.910;2022-08-04T04:23:03;12.07;;;4.57;;
31652;SDS011;18261;53.648;9.910;2022-08-04T04:25:38;11.60;;;4.57;;
31652;SDS011;18261;53.648;9.910;2022-08-04T04:36:00;12.02;;;3.92;;
31652;SDS011;18261;53.648;9.910;2022-08-04T04:38:29;9.65;;;4.05;;
31652;SDS011;18261;53.648;9.910;2022-08-04T04:51:32;13.18;;;4.70;;
31652;SDS011;18261;53.648;9.910;2022-08-04T04:54:12;12.15;;;6.93;;
31652;SDS011;18261;53.648;9.910;2022-08-04T04:56:50;14.38;;;4.25;;
31652;SDS011;18261;53.648;9.910;2022-08-04T04:59:20;11.48;;;4.25;;
31652;SDS011;18261;53.648;9.910;2022-08-04T05:02:02;12.40;;;4.10;;
31652;SDS011;18261;53.648;9.910;2022-08-04T05:14:57;10.70;;;4.35;;
31652;SDS011;18261;53.648;9.910;2022-08-04T05:17:48;20.73;;;3.65;;
31652;SDS011;18261;53.648;9.910;2022-08-04T05:25:18;17.75;;;4.28;;
31652;SDS011;18261;53.648;9.910;2022-08-04T05:27:49;15.30;;;4.40;;
31652;SDS011;18261;53.648;9.910;2022-08-04T05:30:16;9.93;;;3.80;;
31652;SDS011;18261;53.648;9.910;2022-08-04T05:32:52;14.90;;;4.15;;
31652;SDS011;18261;53.648;9.910;2022-08-04T05:35:21;15.52;;;3.83;;
31652;SDS011;18261;53.648;9.910;2022-08-04T05:37:52;13.13;;;3.70;;
31652;SDS011;18261;53.648;9.910;2022-08-04T05:40:19;12.43;;;3.17;;
31652;SDS011;18261;53.648;9.910;2022-08-04T05:42:45;18.48;;;4.85;;
31652;SDS011;18261;53.648;9.910;2022-08-04T05:45:12;20.55;;;4.70;;
31652;SDS011;18261;53.648;9.910;2022-08-04T05:47:38;10.25;;;4.18;;
31652;SDS011;18261;53.648;9.910;2022-08-04T05:50:05;17.02;;;3.55;;
31652;SDS011;18261;53.648;9.910;2022-08-04T05:52:31;15.57;;;4.80;;
31652;SDS011;18261;53.648;9.910;2022-08-04T05:54:59;15.93;;;3.88;;
31652;SDS011;18261;53.648;9.910;2022-08-04T05:57:25;14.05;;;3.90;;
31652;SDS011;18261;53.648;9.910;2022-08-04T05:59:52;16.90;;;4.45;;
31652;SDS011;18261;53.648;9.910;2022-08-04T06:02:19;16.00;;;3.55;;
31652;SDS011;18261;53.648;9.910;2022-08-04T06:04:48;15.00;;;3.72;;
31652;SDS011;18261;53.648;9.910;2022-08-04T06:07:14;10.38;;;3.80;;
31652;SDS011;18261;53.648;9.910;2022-08-04T06:09:40;18.30;;;3.65;;
31652;SDS011;18261;53.648;9.910;2022-08-04T06:12:08;17.52;;;3.85;;
31652;SDS011;18261;53.648;9.910;2022-08-04T06:14:39;22.55;;;4.57;;
31652;SDS011;18261;53.648;9.910;2022-08-04T06:17:07;13.90;;;4.20;;
31652;SDS011;18261;53.648;9.910;2022-08-04T06:19:34;15.63;;;4.18;;
31652;SDS011;18261;53.648;9.910;2022-08-04T06:22:01;19.30;;;4.55;;
31652;SDS011;18261;53.648;9.910;2022-08-04T06:24:28;17.98;;;3.83;;
31652;SDS011;18261;53.648;9.910;2022-08-04T06:26:55;17.92;;;4.22;;
31652;SDS011;18261;53.648;9.910;2022-08-04T06:29:21;24.10;;;4.03;;
31652;SDS011;18261;53.648;9.910;2022-08-04T06:31:55;20.55;;;4.35;;
31652;SDS011;18261;53.648;9.910;2022-08-04T06:34:22;17.77;;;4.63;;
31652;SDS011;18261;53.648;9.910;2022-08-04T06:36:48;11.93;;;3.58;;
31652;SDS011;18261;53.648;9.910;2022-08-04T06:39:15;15.40;;;3.40;;
31652;SDS011;18261;53.648;9.910;2022-08-04T06:41:41;21.20;;;3.92;;
31652;SDS011;18261;53.648;9.910;2022-08-04T06:44:08;16.92;;;4.57;;
31652;SDS011;18261;53.648;9.910;2022-08-04T06:46:36;15.95;;;4.20;;
31652;SDS011;18261;53.648;9.910;2022-08-04T06:49:03;16.77;;;4.07;;
31652;SDS011;18261;53.648;9.910;2022-08-04T06:51:29;19.45;;;4.20;;
31652;SDS011;18261;53.648;9.910;2022-08-04T06:53:55;16.85;;;3.80;;
31652;SDS011;18261;53.648;9.910;2022-08-04T06:56:21;16.25;;;4.10;;
31652;SDS011;18261;53.648;9.910;2022-08-04T06:58:49;20.15;;;4.10;;
31652;SDS011;18261;53.648;9.910;2022-08-04T07:01:15;15.07;;;3.53;;
31652;SDS011;18261;53.648;9.910;2022-08-04T07:03:42;17.38;;;3.78;;
31652;SDS011;18261;53.648;9.910;2022-08-04T07:06:09;16.10;;;3.80;;
31652;SDS011;18261;53.648;9.910;2022-08-04T07:08:35;23.58;;;4.82;;
31652;SDS011;18261;53.648;9.910;2022-08-04T07:11:01;25.75;;;4.40;;
31652;SDS011;18261;53.648;9.910;2022-08-04T07:13:27;13.82;;;3.05;;
31652;SDS011;18261;53.648;9.910;2022-08-04T07:15:55;16.67;;;3.90;;
31652;SDS011;18261;53.648;9.910;2022-08-04T07:18:22;18.83;;;4.38;;
31652;SDS011;18261;53.648;9.910;2022-08-04T07:20:48;18.40;;;3.63;;
31652;SDS011;18261;53.648;9.910;2022-08-04T07:23:15;17.48;;;3.85;;
31652;SDS011;18261;53.648;9.910;2022-08-04T07:25:41;8.93;;;3.03;;
31652;SDS011;18261;53.648;9.910;2022-08-04T07:28:08;15.32;;;3.30;;
31652;SDS011;18261;53.648;9.910;2022-08-04T07:30:34;12.52;;;3.60;;
31652;SDS011;18261;53.648;9.910;2022-08-04T07:33:01;13.05;;;3.53;;
31652;SDS011;18261;53.648;9.910;2022-08-04T07:35:28;20.48;;;4.43;;
31652;SDS011;18261;53.648;9.910;2022-08-04T07:37:54;25.58;;;4.38;;
31652;SDS011;18261;53.648;9.910;2022-08-04T07:40:20;18.95;;;4.97;;
31652;SDS011;18261;53.648;9.910;2022-08-04T07:42:46;13.93;;;3.92;;
31652;SDS011;18261;53.648;9.910;2022-08-04T07:45:12;11.20;;;3.50;;
31652;SDS011;18261;53.648;9.910;2022-08-04T07:47:42;22.85;;;4.18;;
31652;SDS011;18261;53.648;9.910;2022-08-04T07:50:08;10.73;;;3.40;;
31652;SDS011;18261;53.648;9.910;2022-08-04T07:52:36;23.33;;;4.40;;
31652;SDS011;18261;53.648;9.910;2022-08-04T07:55:02;23.77;;;3.67;;
31652;SDS011;18261;53.648;9.910;2022-08-04T07:57:29;20.67;;;4.45;;
31652;SDS011;18261;53.648;9.910;2022-08-04T07:59:55;17.40;;;4.43;;
31652;SDS011;18261;53.648;9.910;2022-08-04T08:02:21;24.92;;;3.58;;
31652;SDS011;18261;53.648;9.910;2022-08-04T08:04:48;23.00;;;4.30;;
31652;SDS011;18261;53.648;9.910;2022-08-04T08:07:14;15.93;;;3.90;;
31652;SDS011;18261;53.648;9.910;2022-08-04T08:09:41;15.95;;;3.72;;
31652;SDS011;18261;53.648;9.910;2022-08-04T08:12:07;19.52;;;4.40;;
31652;SDS011;18261;53.648;9.910;2022-08-04T08:14:34;18.08;;;3.47;;
31652;SDS011;18261;53.648;9.910;2022-08-04T08:17:00;11.75;;;3.17;;
31652;SDS011;18261;53.648;9.910;2022-08-04T08:19:27;14.73;;;3.67;;
31652;SDS011;18261;53.648;9.910;2022-08-04T08:21:53;17.80;;;3.40;;
31652;SDS011;18261;53.648;9.910;2022-08-04T08:24:19;20.13;;;4.85;;
31652;SDS011;18261;53.648;9.910;2022-08-04T08:26:45;17.80;;;4.15;;
31652;SDS011;18261;53.648;9.910;2022-08-04T08:29:12;10.15;;;2.95;;
31652;SDS011;18261;53.648;9.910;2022-08-04T08:31:38;20.88;;;3.95;;
31652;SDS011;18261;53.648;9.910;2022-08-04T08:34:04;16.48;;;3.00;;
31652;SDS011;18261;53.648;9.910;2022-08-04T08:41:53;13.80;;;3.10;;
31652;SDS011;18261;53.648;9.910;2022-08-04T08:44:45;24.20;;;6.70;;
31652;SDS011;18261;53.648;9.910;2022-08-04T08:55:25;15.20;;;3.08;;
31652;SDS011;18261;53.648;9.910;2022-08-04T09:00:50;12.88;;;2.92;;
31652;SDS011;18261;53.648;9.910;2022-08-04T09:10:46;12.07;;;2.83;;
31652;SDS011;18261;53.648;9.910;2022-08-04T09:13:22;15.15;;;3.60;;
31652;SDS011;18261;53.648;9.910;2022-08-04T09:16:02;13.05;;;3.33;;
31652;SDS011;18261;53.648;9.910;2022-08-04T09:18:36;18.98;;;3.45;;
31652;SDS011;18261;53.648;9.910;2022-08-04T09:26:19;16.05;;;4.00;;
31652;SDS011;18261;53.648;9.910;2022-08-04T09:28:51;13.10;;;3.75;;
31652;SDS011;18261;53.648;9.910;2022-08-04T09:31:27;12.80;;;2.80;;
31652;SDS011;18261;53.648;9.910;2022-08-04T09:33:59;14.32;;;3.00;;
31652;SDS011;18261;53.648;9.910;2022-08-04T09:36:41;11.10;;;3.20;;
31652;SDS011;18261;53.648;9.910;2022-08-04T09:41:56;14.98;;;3.30;;
31652;SDS011;18261;53.648;9.910;2022-08-04T09:44:27;17.48;;;2.67;;
31652;SDS011;18261;53.648;9.910;2022-08-04T09:49:22;11.27;;;2.88;;
31652;SDS011;18261;53.648;9.910;2022-08-04T09:54:28;5.93;;;2.00;;
31652;SDS011;18261;53.648;9.910;2022-08-04T09:56:59;10.85;;;2.63;;
31652;SDS011;18261;53.648;9.910;2022-08-04T09:59:35;10.90;;;2.70;;
31652;SDS011;18261;53.648;9.910;2022-08-04T10:02:06;7.88;;;2.13;;
31652;SDS011;18261;53.648;9.910;2022-08-04T10:04:32;10.30;;;2.88;;
31652;SDS011;18261;53.648;9.910;2022-08-04T10:09:33;5.95;;;2.75;;
31652;SDS011;18261;53.648;9.910;2022-08-04T10:14:39;10.50;;;2.80;;
31652;SDS011;18261;53.648;9.910;2022-08-04T10:19:37;8.90;;;3.38;;
31652;SDS011;18261;53.648;9.910;2022-08-04T10:29:44;15.93;;;2.90;;
31652;SDS011;18261;53.648;9.910;2022-08-04T10:34:46;9.40;;;2.78;;
31652;SDS011;18261;53.648;9.910;2022-08-04T10:37:21;10.32;;;2.75;;
31652;SDS011;18261;53.648;9.910;2022-08-04T10:39:52;20.33;;;4.25;;
31652;SDS011;18261;53.648;9.910;2022-08-04T10:42:39;12.07;;;3.58;;
31652;SDS011;18261;53.648;9.910;2022-08-04T10:45:18;9.43;;;2.72;;
31652;SDS011;18261;53.648;9.910;2022-08-04T10:47:51;13.18;;;4.10;;
31652;SDS011;18261;53.648;9.910;2022-08-04T10:50:19;14.38;;;3.88;;
31652;SDS011;18261;53.648;9.910;2022-08-04T10:52:54;10.30;;;2.50;;
31652;SDS011;18261;53.648;9.910;2022-08-04T10:55:26;9.75;;;2.72;;
31652;SDS011;18261;53.648;9.910;2022-08-04T10:58:00;9.63;;;3.25;;
31652;SDS011;18261;53.648;9.910;2022-08-04T11:00:27;8.57;;;3.00;;
31652;SDS011;18261;53.648;9.910;2022-08-04T11:03:05;10.90;;;2.88;;
31652;SDS011;18261;53.648;9.910;2022-08-04T11:05:40;20.23;;;3.13;;
31652;SDS011;18261;53.648;9.910;2022-08-04T11:08:17;16.08;;;2.75;;
31652;SDS011;18261;53.648;9.910;2022-08-04T11:10:46;16.52;;;3.55;;
31652;SDS011;18261;53.648;9.910;2022-08-04T11:13:14;7.50;;;2.50;;
31652;SDS011;18261;53.648;9.910;2022-08-04T11:15:45;11.02;;;2.80;;
31652;SDS011;18261;53.648;9.910;2022-08-04T11:18:14;8.77;;;2.78;;
31652;SDS011;18261;53.648;9.910;2022-08-04T11:20:54;5.63;;;2.50;;
31652;SDS011;18261;53.648;9.910;2022-08-04T11:23:22;5.65;;;2.40;;
31652;SDS011;18261;53.648;9.910;2022-08-04T11:25:55;6.00;;;2.25;;
31652;SDS011;18261;53.648;9.910;2022-08-04T11:31:10;12.13;;;3.33;;
31652;SDS011;18261;53.648;9.910;2022-08-04T11:33:41;6.20;;;3.58;;
31652;SDS011;18261;53.648;9.910;2022-08-04T11:36:13;11.25;;;2.38;;
31652;SDS011;18261;53.648;9.910;2022-08-04T11:41:06;10.02;;;2.58;;
31652;SDS011;18261;53.648;9.910;2022-08-04T11:43:42;8.63;;;2.67;;
31652;SDS011;18261;53.648;9.910;2022-08-04T11:46:11;5.70;;;2.63;;
31652;SDS011;18261;53.648;9.910;2022-08-04T11:48:40;13.73;;;3.15;;
31652;SDS011;18261;53.648;9.910;2022-08-04T11:51:07;8.10;;;2.53;;
31652;SDS011;18261;53.648;9.910;2022-08-04T11:53:34;6.82;;;2.97;;
31652;SDS011;18261;53.648;9.910;2022-08-04T11:56:03;7.68;;;3.40;;
31652;SDS011;18261;53.648;9.910;2022-08-04T11:58:29;5.25;;;2.53;;
31652;SDS011;18261;53.648;9.910;2022-08-04T12:00:59;7.90;;;3.25;;
31652;SDS011;18261;53.648;9.910;2022-08-04T12:03:31;9.23;;;2.30;;
31652;SDS011;18261;53.648;9.910;2022-08-04T12:06:09;9.38;;;2.47;;
31652;SDS011;18261;53.648;9.910;2022-08-04T12:08:53;7.90;;;2.10;;
31652;SDS011;18261;53.648;9.910;2022-08-04T12:11:32;7.93;;;1.90;;
31652;SDS011;18261;53.648;9.910;2022-08-04T12:14:12;4.65;;;1.88;;
31652;SDS011;18261;53.648;9.910;2022-08-04T12:19:35;4.25;;;1.88;;
31652;SDS011;18261;53.648;9.910;2022-08-04T12:22:04;6.32;;;1.80;;
31652;SDS011;18261;53.648;9.910;2022-08-04T12:24:36;8.18;;;1.85;;
31652;SDS011;18261;53.648;9.910;2022-08-04T12:27:06;4.85;;;2.10;;
31652;SDS011;18261;53.648;9.910;2022-08-04T12:29:36;6.65;;;2.03;;
31652;SDS011;18261;53.648;9.910;2022-08-04T12:32:06;7.95;;;1.83;;
31652;SDS011;18261;53.648;9.910;2022-08-04T12:34:39;6.07;;;2.00;;
31652;SDS011;18261;53.648;9.910;2022-08-04T12:39:43;5.45;;;2.08;;
31652;SDS011;18261;53.648;9.910;2022-08-04T12:42:12;8.45;;;1.83;;
31652;SDS011;18261;53.648;9.910;2022-08-04T12:44:40;3.65;;;1.80;;
31652;SDS011;18261;53.648;9.910;2022-08-04T12:47:08;3.78;;;1.88;;
31652;SDS011;18261;53.648;9.910;2022-08-04T12:49:34;5.63;;;2.05;;
31652;SDS011;18261;53.648;9.910;2022-08-04T12:52:03;8.77;;;2.05;;
31652;SDS011;18261;53.648;9.910;2022-08-04T12:54:30;11.02;;;2.40;;
31652;SDS011;18261;53.648;9.910;2022-08-04T12:56:58;14.60;;;1.98;;
31652;SDS011;18261;53.648;9.910;2022-08-04T12:59:25;7.15;;;2.25;;
31652;SDS011;18261;53.648;9.910;2022-08-04T13:01:52;4.60;;;2.20;;
31652;SDS011;18261;53.648;9.910;2022-08-04T13:04:19;3.38;;;1.70;;
31652;SDS011;18261;53.648;9.910;2022-08-04T13:06:55;5.63;;;1.77;;
31652;SDS011;18261;53.648;9.910;2022-08-04T13:09:22;7.72;;;2.20;;
31652;SDS011;18261;53.648;9.910;2022-08-04T13:11:50;3.45;;;2.08;;
31652;SDS011;18261;53.648;9.910;2022-08-04T13:14:17;6.25;;;2.00;;
31652;SDS011;18261;53.648;9.910;2022-08-04T13:16:44;10.23;;;2.90;;
31652;SDS011;18261;53.648;9.910;2022-08-04T13:19:10;8.80;;;2.22;;
31652;SDS011;18261;53.648;9.910;2022-08-04T13:21:41;3.85;;;2.10;;
31652;SDS011;18261;53.648;9.910;2022-08-04T13:24:12;6.03;;;1.95;;
31652;SDS011;18261;53.648;9.910;2022-08-04T13:27:01;5.38;;;1.90;;
31652;SDS011;18261;53.648;9.910;2022-08-04T13:29:29;4.63;;;1.92;;
31652;SDS011;18261;53.648;9.910;2022-08-04T13:31:56;7.43;;;2.33;;
31652;SDS011;18261;53.648;9.910;2022-08-04T13:34:23;5.20;;;2.00;;
31652;SDS011;18261;53.648;9.910;2022-08-04T13:36:49;12.20;;;2.33;;
31652;SDS011;18261;53.648;9.910;2022-08-04T13:39:20;9.32;;;2.10;;
31652;SDS011;18261;53.648;9.910;2022-08-04T13:41:49;5.10;;;2.22;;
31652;SDS011;18261;53.648;9.910;2022-08-04T13:44:20;5.15;;;2.00;;
31652;SDS011;18261;53.648;9.910;2022-08-04T13:46:49;4.60;;;2.05;;
31652;SDS011;18261;53.648;9.910;2022-08-04T13:49:16;6.20;;;1.85;;
31652;SDS011;18261;53.648;9.910;2022-08-04T13:51:53;6.30;;;2.15;;
31652;SDS011;18261;53.648;9.910;2022-08-04T13:54:20;4.10;;;1.80;;
31652;SDS011;18261;53.648;9.910;2022-08-04T13:56:50;3.22;;;2.13;;
31652;SDS011;18261;53.648;9.910;2022-08-04T13:59:18;14.43;;;1.90;;
31652;SDS011;18261;53.648;9.910;2022-08-04T14:01:46;4.68;;;2.00;;
31652;SDS011;18261;53.648;9.910;2022-08-04T14:04:21;3.75;;;1.75;;
31652;SDS011;18261;53.648;9.910;2022-08-04T14:09:21;4.55;;;1.88;;
31652;SDS011;18261;53.648;9.910;2022-08-04T14:11:48;5.53;;;1.83;;
31652;SDS011;18261;53.648;9.910;2022-08-04T14:14:15;7.75;;;2.10;;
31652;SDS011;18261;53.648;9.910;2022-08-04T14:16:53;2.08;;;1.70;;
31652;SDS011;18261;53.648;9.910;2022-08-04T14:19:19;14.15;;;2.78;;
31652;SDS011;18261;53.648;9.910;2022-08-04T14:21:45;11.70;;;2.72;;
31652;SDS011;18261;53.648;9.910;2022-08-04T14:24:12;13.82;;;3.38;;
31652;SDS011;18261;53.648;9.910;2022-08-04T14:26:47;12.32;;;2.95;;
31652;SDS011;18261;53.648;9.910;2022-08-04T14:29:14;12.73;;;3.15;;
31652;SDS011;18261;53.648;9.910;2022-08-04T14:31:40;11.07;;;3.30;;
31652;SDS011;18261;53.648;9.910;2022-08-04T14:34:06;12.75;;;3.05;;
31652;SDS011;18261;53.648;9.910;2022-08-04T14:36:40;14.52;;;3.45;;
31652;SDS011;18261;53.648;9.910;2022-08-04T14:39:07;11.68;;;2.97;;
31652;SDS011;18261;53.648;9.910;2022-08-04T14:41:45;13.20;;;3.20;;
31652;SDS011;18261;53.648;9.910;2022-08-04T14:44:11;8.85;;;3.28;;
31652;SDS011;18261;53.648;9.910;2022-08-04T14:46:56;17.90;;;3.38;;
31652;SDS011;18261;53.648;9.910;2022-08-04T14:49:26;19.30;;;4.30;;
31652;SDS011;18261;53.648;9.910;2022-08-04T14:51:58;21.10;;;3.63;;
31652;SDS011;18261;53.648;9.910;2022-08-04T14:56:53;21.08;;;4.47;;
31652;SDS011;18261;53.648;9.910;2022-08-04T14:59:19;17.73;;;4.35;;
31652;SDS011;18261;53.648;9.910;2022-08-04T15:01:45;20.65;;;5.00;;
31652;SDS011;18261;53.648;9.910;2022-08-04T15:04:13;23.63;;;7.70;;
31652;SDS011;18261;53.648;9.910;2022-08-04T15:06:39;20.20;;;5.45;;
31652;SDS011;18261;53.648;9.910;2022-08-04T15:09:07;16.42;;;4.65;;
31652;SDS011;18261;53.648;9.910;2022-08-04T15:11:33;24.95;;;4.32;;
31652;SDS011;18261;53.648;9.910;2022-08-04T15:13:59;18.40;;;4.32;;
31652;SDS011;18261;53.648;9.910;2022-08-04T15:16:27;12.55;;;4.38;;
31652;SDS011;18261;53.648;9.910;2022-08-04T15:18:54;17.27;;;4.00;;
31652;SDS011;18261;53.648;9.910;2022-08-04T15:21:20;19.25;;;3.90;;
31652;SDS011;18261;53.648;9.910;2022-08-04T15:23:47;22.70;;;4.13;;
31652;SDS011;18261;53.648;9.910;2022-08-04T15:26:15;23.25;;;4.53;;
31652;SDS011;18261;53.648;9.910;2022-08-04T15:28:44;17.17;;;4.22;;
31652;SDS011;18261;53.648;9.910;2022-08-04T15:31:10;16.83;;;4.95;;
31652;SDS011;18261;53.648;9.910;2022-08-04T15:33:38;21.50;;;4.43;;
31652;SDS011;18261;53.648;9.910;2022-08-04T15:36:14;21.63;;;5.07;;
31652;SDS011;18261;53.648;9.910;2022-08-04T15:38:43;15.23;;;4.80;;
31652;SDS011;18261;53.648;9.910;2022-08-04T15:46:39;16.90;;;4.05;;
31652;SDS011;18261;53.648;9.910;2022-08-04T15:49:24;21.77;;;4.30;;
31652;SDS011;18261;53.648;9.910;2022-08-04T15:54:25;24.70;;;4.28;;
31652;SDS011;18261;53.648;9.910;2022-08-04T15:56:51;16.15;;;4.30;;
31652;SDS011;18261;53.648;9.910;2022-08-04T15:59:54;22.88;;;4.80;;
31652;SDS011;18261;53.648;9.910;2022-08-04T16:07:13;27.88;;;5.38;;
31652;SDS011;18261;53.648;9.910;2022-08-04T16:09:39;15.73;;;4.70;;
31652;SDS011;18261;53.648;9.910;2022-08-04T16:12:05;16.95;;;5.38;;
31652;SDS011;18261;53.648;9.910;2022-08-04T16:14:32;23.27;;;6.65;;
31652;SDS011;18261;53.648;9.910;2022-08-04T16:17:12;22.33;;;6.85;;
31652;SDS011;18261;53.648;9.910;2022-08-04T16:19:47;28.13;;;6.80;;
31652;SDS011;18261;53.648;9.910;2022-08-04T16:22:30;24.77;;;6.82;;
31652;SDS011;18261;53.648;9.910;2022-08-04T16:24:56;27.13;;;6.15;;
31652;SDS011;18261;53.648;9.910;2022-08-04T16:27:34;29.48;;;6.50;;
31652;SDS011;18261;53.648;9.910;2022-08-04T16:30:03;17.23;;;6.07;;
31652;SDS011;18261;53.648;9.910;2022-08-04T16:32:35;21.45;;;5.35;;
31652;SDS011;18261;53.648;9.910;2022-08-04T16:35:04;16.55;;;5.28;;
31652;SDS011;18261;53.648;9.910;2022-08-04T16:37:42;14.45;;;4.53;;
31652;SDS011;18261;53.648;9.910;2022-08-04T16:45:18;18.30;;;5.43;;
31652;SDS011;18261;53.648;9.910;2022-08-04T16:52:46;16.92;;;6.15;;
31652;SDS011;18261;53.648;9.910;2022-08-04T16:55:22;24.95;;;5.95;;
31652;SDS011;18261;53.648;9.910;2022-08-04T16:57:49;16.70;;;5.13;;
31652;SDS011;18261;53.648;9.910;2022-08-04T17:00:15;16.48;;;5.05;;
31652;SDS011;18261;53.648;9.910;2022-08-04T17:02:42;21.48;;;5.40;;
31652;SDS011;18261;53.648;9.910;2022-08-04T17:05:19;15.30;;;4.93;;
31652;SDS011;18261;53.648;9.910;2022-08-04T17:07:49;15.00;;;5.82;;
31652;SDS011;18261;53.648;9.910;2022-08-04T17:10:15;18.63;;;5.28;;
31652;SDS011;18261;53.648;9.910;2022-08-04T17:12:41;20.67;;;5.05;;
31652;SDS011;18261;53.648;9.910;2022-08-04T17:15:28;15.38;;;4.97;;
31652;SDS011;18261;53.648;9.910;2022-08-04T17:18:12;12.98;;;4.18;;
31652;SDS011;18261;53.648;9.910;2022-08-04T17:20:39;13.88;;;4.85;;
31652;SDS011;18261;53.648;9.910;2022-08-04T17:28:18;20.80;;;5.07;;
31652;SDS011;18261;53.648;9.910;2022-08-04T17:30:45;15.20;;;5.05;;
31652;SDS011;18261;53.648;9.910;2022-08-04T17:33:14;25.83;;;5.38;;
31652;SDS011;18261;53.648;9.910;2022-08-04T17:35:41;15.13;;;4.47;;
31652;SDS011;18261;53.648;9.910;2022-08-04T17:38:07;20.92;;;5.78;;
31652;SDS011;18261;53.648;9.910;2022-08-04T17:40:33;19.15;;;5.65;;
31652;SDS011;18261;53.648;9.910;2022-08-04T17:43:14;18.98;;;5.22;;
31652;SDS011;18261;53.648;9.910;2022-08-04T17:45:40;17.60;;;5.60;;
31652;SDS011;18261;53.648;9.910;2022-08-04T17:48:07;17.55;;;5.85;;
31652;SDS011;18261;53.648;9.910;2022-08-04T17:50:33;15.63;;;5.90;;
31652;SDS011;18261;53.648;9.910;2022-08-04T17:53:04;23.13;;;6.00;;
31652;SDS011;18261;53.648;9.910;2022-08-04T17:55:45;12.70;;;5.47;;
31652;SDS011;18261;53.648;9.910;2022-08-04T17:58:19;15.18;;;5.25;;
31652;SDS011;18261;53.648;9.910;2022-08-04T18:00:45;16.25;;;5.68;;
31652;SDS011;18261;53.648;9.910;2022-08-04T18:03:25;12.57;;;5.05;;
31652;SDS011;18261;53.648;9.910;2022-08-04T18:05:51;18.70;;;6.18;;
31652;SDS011;18261;53.648;9.910;2022-08-04T18:08:23;18.83;;;5.30;;
31652;SDS011;18261;53.648;9.910;2022-08-04T18:10:51;16.55;;;5.32;;
31652;SDS011;18261;53.648;9.910;2022-08-04T18:13:17;24.67;;;5.97;;
31652;SDS011;18261;53.648;9.910;2022-08-04T18:15:43;17.10;;;5.32;;
31652;SDS011;18261;53.648;9.910;2022-08-04T18:18:16;20.05;;;5.18;;
31652;SDS011;18261;53.648;9.910;2022-08-04T18:20:43;13.98;;;4.38;;
31652;SDS011;18261;53.648;9.910;2022-08-04T18:23:09;11.27;;;4.65;;
31652;SDS011;18261;53.648;9.910;2022-08-04T18:25:35;22.95;;;5.18;;
31652;SDS011;18261;53.648;9.910;2022-08-04T18:28:03;14.73;;;4.85;;
31652;SDS011;18261;53.648;9.910;2022-08-04T18:30:30;15.98;;;4.47;;
31652;SDS011;18261;53.648;9.910;2022-08-04T18:32:56;17.65;;;5.07;;
31652;SDS011;18261;53.648;9.910;2022-08-04T18:35:22;13.23;;;5.03;;
31652;SDS011;18261;53.648;9.910;2022-08-04T18:37:48;15.18;;;5.32;;
31652;SDS011;18261;53.648;9.910;2022-08-04T18:40:17;11.90;;;4.53;;
31652;SDS011;18261;53.648;9.910;2022-08-04T18:42:43;19.55;;;4.78;;
31652;SDS011;18261;53.648;9.910;2022-08-04T18:45:09;10.85;;;4.13;;
31652;SDS011;18261;53.648;9.910;2022-08-04T18:47:37;17.92;;;5.00;;
31652;SDS011;18261;53.648;9.910;2022-08-04T18:50:03;17.42;;;4.38;;
31652;SDS011;18261;53.648;9.910;2022-08-04T18:52:29;12.70;;;4.35;;
31652;SDS011;18261;53.648;9.910;2022-08-04T18:54:55;22.65;;;4.95;;
31652;SDS011;18261;53.648;9.910;2022-08-04T18:57:21;16.80;;;5.13;;